Terminal Aerodrome Forecast
Issued by NWS

Home | Current Version | Previous Version | Text Only | Print | Product List | Glossary On
Versions: 1 2 3 4 5 6 7 8 9 10 11 12 13 14 15 16 17
000
FTUS43 KLSX 190500
TAFCPS
TAF
KCPS 190520Z 1906/2006 00000KT P6SM SCT045
     FM190900 00000KT 3SM BR SKC
      TEMPO 1910/1913 2SM BR
     FM191300 19005KT P6SM SCT250=

USA.gov is the U.S. government's official web portal to all federal, state and local government web resources and services.